createdAt,value
2018-10-21T00:01:45.431Z,11.90
2018-10-21T00:04:12.950Z,12.47
2018-10-21T00:06:40.390Z,14.07
2018-10-21T00:09:07.905Z,14.53
2018-10-21T00:11:35.461Z,17.27
2018-10-21T00:14:02.911Z,12.53
2018-10-21T00:16:30.358Z,13.18
2018-10-21T00:18:57.786Z,13.20
2018-10-21T00:21:25.234Z,12.67
2018-10-21T00:23:52.673Z,14.20
2018-10-21T00:26:20.110Z,17.00
2018-10-21T00:28:47.594Z,13.03
2018-10-21T00:31:15.087Z,18.07
2018-10-21T00:33:42.525Z,12.87
2018-10-21T00:36:09.966Z,13.77
2018-10-21T00:38:37.402Z,16.03
2018-10-21T00:41:04.829Z,12.58
2018-10-21T00:43:32.271Z,11.63
2018-10-21T00:45:59.713Z,10.80
2018-10-21T00:48:27.262Z,11.67
2018-10-21T00:50:55.339Z,12.73
2018-10-21T00:53:22.762Z,13.37
2018-10-21T00:55:50.210Z,12.17
2018-10-21T00:58:17.640Z,13.67
2018-10-21T01:00:45.078Z,11.43
2018-10-21T01:03:12.603Z,12.67
2018-10-21T01:05:39.987Z,13.57
2018-10-21T01:08:07.457Z,16.87
2018-10-21T01:10:34.990Z,12.77
2018-10-21T01:13:02.483Z,13.30
2018-10-21T01:15:29.922Z,12.13
2018-10-21T01:17:57.357Z,13.77
2018-10-21T01:20:24.794Z,12.63
2018-10-21T01:22:52.323Z,15.77
2018-10-21T01:25:19.881Z,14.90
2018-10-21T01:27:47.314Z,12.70
2018-10-21T01:30:14.782Z,17.60
2018-10-21T01:32:42.262Z,11.77
2018-10-21T01:35:09.761Z,11.97
2018-10-21T01:37:37.358Z,15.77
2018-10-21T01:40:04.789Z,15.17
2018-10-21T01:42:32.286Z,12.73
2018-10-21T01:44:59.775Z,13.70
2018-10-21T01:47:27.225Z,13.90
2018-10-21T01:49:54.754Z,14.43
2018-10-21T01:52:22.204Z,11.73
2018-10-21T01:54:49.621Z,14.00
2018-10-21T01:57:17.216Z,12.93
2018-10-21T01:59:44.559Z,13.60
2018-10-21T02:02:11.998Z,11.30
2018-10-21T02:04:39.430Z,12.97
2018-10-21T02:07:06.950Z,14.33
2018-10-21T02:09:34.517Z,11.30
2018-10-21T02:12:01.952Z,15.67
2018-10-21T02:14:29.382Z,14.17
2018-10-21T02:16:56.835Z,14.70
2018-10-21T02:19:24.326Z,13.60
2018-10-21T02:21:51.795Z,15.27
2018-10-21T02:24:19.288Z,12.73
2018-10-21T02:26:46.815Z,13.00
2018-10-21T02:29:14.659Z,17.03
2018-10-21T02:31:42.099Z,15.53
2018-10-21T02:34:09.606Z,15.90
2018-10-21T02:36:37.063Z,16.77
2018-10-21T02:39:04.748Z,12.87
2018-10-21T02:41:40.722Z,13.37
2018-10-21T02:44:10.393Z,11.20
2018-10-21T02:46:38.344Z,16.33
2018-10-21T02:49:06.411Z,16.57
2018-10-21T02:51:33.857Z,13.67
2018-10-21T02:54:01.301Z,15.00
2018-10-21T02:56:28.741Z,13.10
2018-10-21T02:58:56.186Z,13.10
2018-10-21T03:01:23.673Z,14.75
2018-10-21T03:03:51.075Z,16.87
2018-10-21T03:06:18.760Z,16.47
2018-10-21T03:08:46.198Z,14.37
2018-10-21T03:11:13.653Z,15.80
2018-10-21T03:13:41.126Z,17.00
2018-10-21T03:16:08.562Z,15.80
2018-10-21T03:18:36.014Z,15.93
2018-10-21T03:21:04.429Z,14.97
2018-10-21T03:23:32.254Z,15.95
2018-10-21T03:26:00.119Z,15.65
2018-10-21T03:28:27.602Z,15.08
2018-10-21T03:30:55.040Z,17.07
2018-10-21T03:33:22.620Z,16.77
2018-10-21T03:35:49.929Z,20.40
2018-10-21T03:38:17.398Z,14.83
2018-10-21T03:40:44.846Z,16.93
2018-10-21T03:43:12.312Z,18.53
2018-10-21T03:45:39.746Z,17.07
2018-10-21T03:48:07.186Z,16.17
2018-10-21T03:50:34.634Z,19.25
2018-10-21T03:53:02.143Z,14.77
2018-10-21T03:55:29.823Z,18.57
2018-10-21T03:57:57.263Z,21.97
2018-10-21T04:00:24.697Z,18.10
2018-10-21T04:02:52.137Z,15.77
2018-10-21T04:05:19.669Z,14.80
2018-10-21T04:07:47.109Z,15.37
2018-10-21T04:10:15.019Z,16.73
2018-10-21T04:12:42.438Z,16.50
2018-10-21T04:15:09.894Z,17.55
2018-10-21T04:17:37.330Z,20.23
2018-10-21T04:20:04.767Z,20.48
2018-10-21T04:22:36.482Z,15.40
2018-10-21T04:25:04.028Z,15.03
2018-10-21T04:27:31.502Z,18.37
2018-10-21T04:29:58.978Z,16.87
2018-10-21T04:32:26.529Z,16.53
2018-10-21T04:34:54.120Z,14.73
2018-10-21T04:37:21.561Z,18.77
2018-10-21T04:39:49.006Z,15.00
2018-10-21T04:42:16.553Z,15.60
2018-10-21T04:44:43.997Z,17.83
2018-10-21T04:47:11.513Z,14.83
2018-10-21T04:49:38.945Z,17.83
2018-10-21T04:52:06.395Z,17.23
2018-10-21T04:54:35.141Z,18.67
2018-10-21T04:57:03.013Z,14.03
2018-10-21T04:59:30.572Z,16.52
2018-10-21T05:01:57.981Z,13.83
2018-10-21T05:04:25.590Z,15.93
2018-10-21T05:06:53.149Z,15.70
2018-10-21T05:09:20.588Z,18.27
2018-10-21T05:11:48.043Z,18.47
2018-10-21T05:14:15.494Z,16.73
2018-10-21T05:16:42.977Z,16.13
2018-10-21T05:19:10.375Z,18.70
2018-10-21T05:21:37.814Z,15.37
2018-10-21T05:24:05.482Z,18.90
2018-10-21T05:26:32.830Z,16.07
2018-10-21T05:29:00.279Z,16.23
2018-10-21T05:31:27.714Z,13.50
2018-10-21T05:33:55.170Z,17.87
2018-10-21T05:36:22.755Z,16.82
2018-10-21T05:38:50.181Z,14.30
2018-10-21T05:41:17.670Z,20.17
2018-10-21T05:43:45.118Z,16.30
2018-10-21T05:46:12.602Z,19.97
2018-10-21T05:48:40.010Z,15.90
2018-10-21T05:51:07.449Z,16.47
2018-10-21T05:53:34.897Z,21.67
2018-10-21T05:56:02.342Z,15.25
2018-10-21T05:58:29.806Z,15.77
2018-10-21T06:00:57.221Z,17.62
2018-10-21T06:03:24.664Z,17.07
2018-10-21T06:05:52.105Z,20.00
2018-10-21T06:08:19.533Z,15.45
2018-10-21T06:10:46.991Z,17.07
2018-10-21T06:13:14.417Z,16.95
2018-10-21T06:15:42.500Z,15.97
2018-10-21T06:18:14.434Z,16.97
2018-10-21T06:20:43.417Z,12.23
2018-10-21T06:23:10.862Z,16.30
2018-10-21T06:25:38.327Z,14.23
2018-10-21T06:28:05.801Z,15.93
2018-10-21T06:30:33.252Z,18.47
2018-10-21T06:33:00.706Z,16.48
2018-10-21T06:35:28.142Z,16.30
2018-10-21T06:37:55.580Z,15.93
2018-10-21T06:40:23.029Z,12.70
2018-10-21T06:42:50.640Z,16.47
2018-10-21T06:45:18.185Z,13.93
2018-10-21T06:47:45.553Z,17.80
2018-10-21T06:50:13.010Z,13.23
2018-10-21T06:52:41.210Z,13.67
2018-10-21T06:55:08.659Z,15.25
2018-10-21T06:57:36.213Z,16.33
2018-10-21T07:00:03.649Z,16.67
2018-10-21T07:02:31.086Z,17.47
2018-10-21T07:04:58.593Z,16.43
2018-10-21T07:07:25.994Z,15.30
2018-10-21T07:09:53.500Z,19.87
2018-10-21T07:12:20.889Z,16.23
2018-10-21T07:14:48.344Z,16.00
2018-10-21T07:17:15.814Z,18.02
2018-10-21T07:19:43.260Z,16.63
2018-10-21T07:22:10.788Z,15.67
2018-10-21T07:24:38.147Z,17.02
2018-10-21T07:27:05.578Z,18.57
2018-10-21T07:29:33.021Z,20.20
2018-10-21T07:32:00.572Z,19.50
2018-10-21T07:34:28.006Z,17.27
2018-10-21T07:36:56.142Z,16.67
2018-10-21T07:39:23.639Z,15.60
2018-10-21T07:41:51.129Z,15.75
2018-10-21T07:44:18.570Z,15.17
2018-10-21T07:46:46.114Z,15.40
2018-10-21T07:49:13.641Z,15.47
2018-10-21T07:51:41.017Z,15.20
2018-10-21T07:54:08.514Z,15.13
2018-10-21T07:56:35.986Z,15.67
2018-10-21T07:59:03.714Z,16.43
2018-10-21T08:01:31.274Z,17.20
2018-10-21T08:03:58.748Z,16.63
2018-10-21T08:06:28.414Z,13.67
2018-10-21T08:08:55.850Z,15.87
2018-10-21T08:11:23.293Z,17.20
2018-10-21T08:13:50.726Z,16.20
2018-10-21T08:16:18.319Z,14.27
2018-10-21T08:18:45.770Z,15.67
2018-10-21T08:21:13.255Z,14.67
2018-10-21T08:23:40.692Z,17.10
2018-10-21T08:26:08.126Z,15.13
2018-10-21T08:28:35.565Z,15.13
2018-10-21T08:31:03.001Z,15.63
2018-10-21T08:33:30.470Z,15.93
2018-10-21T08:35:57.965Z,17.40
2018-10-21T08:38:25.354Z,19.90
2018-10-21T08:40:52.800Z,16.67
2018-10-21T08:43:20.228Z,15.20
2018-10-21T08:45:47.797Z,17.15
2018-10-21T08:48:15.245Z,15.50
2018-10-21T08:50:42.706Z,15.03
2018-10-21T08:53:10.231Z,16.93
2018-10-21T08:55:37.730Z,19.77
2018-10-21T08:58:05.216Z,18.63
2018-10-21T09:00:32.633Z,18.63
2018-10-21T09:03:00.186Z,20.73
2018-10-21T09:05:27.690Z,20.70
2018-10-21T09:07:55.138Z,16.67
2018-10-21T09:10:22.665Z,17.67
2018-10-21T09:12:50.079Z,19.50
2018-10-21T09:15:18.666Z,16.80
2018-10-21T09:17:45.902Z,21.03
2018-10-21T09:20:15.513Z,15.43
2018-10-21T09:22:42.996Z,16.00
2018-10-21T09:25:11.330Z,17.63
2018-10-21T09:27:39.525Z,17.20
2018-10-21T09:30:06.971Z,19.00
2018-10-21T09:32:34.453Z,20.00
2018-10-21T09:35:01.898Z,20.13
2018-10-21T09:37:29.357Z,19.90
2018-10-21T09:39:56.819Z,18.52
2018-10-21T09:42:24.390Z,18.53
2018-10-21T09:44:51.821Z,18.57
2018-10-21T09:47:19.311Z,18.43
2018-10-21T09:49:46.764Z,19.60
2018-10-21T09:52:14.304Z,21.47
2018-10-21T09:54:41.694Z,21.87
2018-10-21T09:57:09.151Z,19.07
2018-10-21T09:59:36.590Z,22.83
2018-10-21T10:02:09.558Z,23.40
2018-10-21T10:04:37.118Z,26.40
2018-10-21T10:07:04.611Z,23.07
2018-10-21T10:09:32.017Z,21.70
2018-10-21T10:11:59.457Z,23.97
2018-10-21T10:14:26.942Z,22.13
2018-10-21T10:16:54.513Z,16.37
2018-10-21T10:19:21.902Z,16.33
2018-10-21T10:21:49.401Z,18.30
2018-10-21T10:24:16.838Z,17.20
2018-10-21T10:26:44.370Z,20.33
2018-10-21T10:29:11.794Z,18.03
2018-10-21T10:31:39.542Z,23.03
2018-10-21T10:34:07.121Z,18.57
2018-10-21T10:36:34.505Z,16.60
2018-10-21T10:39:01.943Z,17.73
2018-10-21T10:41:29.382Z,20.53
2018-10-21T10:43:57.718Z,20.60
2018-10-21T10:46:25.153Z,17.10
2018-10-21T10:48:52.630Z,17.20
2018-10-21T10:51:20.159Z,19.20
2018-10-21T10:53:47.724Z,15.67
2018-10-21T10:56:15.162Z,23.77
2018-10-21T10:58:42.602Z,17.00
2018-10-21T11:01:10.124Z,17.67
2018-10-21T11:03:37.496Z,18.53
2018-10-21T11:06:04.971Z,18.50
2018-10-21T11:08:32.385Z,16.63
2018-10-21T11:10:59.947Z,11.50
2018-10-21T11:13:27.393Z,6.90
2018-10-21T11:15:54.936Z,10.87
2018-10-21T11:18:22.366Z,9.67
2018-10-21T11:20:49.793Z,9.40
2018-10-21T11:23:17.306Z,7.70
2018-10-21T11:25:44.772Z,9.47
2018-10-21T11:28:12.277Z,14.07
2018-10-21T11:30:39.674Z,7.13
2018-10-21T11:33:07.128Z,6.33
2018-10-21T11:35:34.620Z,12.13
2018-10-21T11:38:02.127Z,12.90
2018-10-21T11:40:29.562Z,12.00
2018-10-21T11:42:57.055Z,15.90
2018-10-21T11:45:24.450Z,10.70
2018-10-21T11:47:51.914Z,12.58
2018-10-21T11:50:19.357Z,13.07
2018-10-21T11:52:47.052Z,10.48
2018-10-21T11:55:14.327Z,8.40
2018-10-21T11:57:41.737Z,10.50
2018-10-21T12:00:09.581Z,11.23
2018-10-21T12:02:37.090Z,9.68
2018-10-21T12:05:04.505Z,8.97
2018-10-21T12:07:31.946Z,7.95
2018-10-21T12:09:59.407Z,9.70
2018-10-21T12:12:26.954Z,9.23
2018-10-21T12:14:54.381Z,9.27
2018-10-21T12:17:21.910Z,9.20
2018-10-21T12:19:49.361Z,6.73
2018-10-21T12:22:16.886Z,7.03
2018-10-21T12:24:44.228Z,12.70
2018-10-21T12:27:11.786Z,8.60
2018-10-21T12:29:39.246Z,9.30
2018-10-21T12:32:06.701Z,8.57
2018-10-21T12:34:34.126Z,8.23
2018-10-21T12:37:01.600Z,6.97
2018-10-21T12:39:29.044Z,8.83
2018-10-21T12:41:56.508Z,7.93
2018-10-21T12:44:23.954Z,5.63
2018-10-21T12:46:51.818Z,7.63
2018-10-21T12:49:19.459Z,7.50
2018-10-21T12:51:46.766Z,8.60
2018-10-21T12:54:15.175Z,9.80
2018-10-21T12:56:42.569Z,7.80
2018-10-21T12:59:10.007Z,10.50
2018-10-21T13:01:37.578Z,7.73
2018-10-21T13:04:05.043Z,8.87
2018-10-21T13:06:32.466Z,8.07
2018-10-21T13:08:59.909Z,6.77
2018-10-21T13:11:27.418Z,8.43
2018-10-21T13:13:54.851Z,7.03
2018-10-21T13:16:22.298Z,7.13
2018-10-21T13:18:49.782Z,7.47
2018-10-21T13:21:17.282Z,9.03
2018-10-21T13:23:44.794Z,9.30
2018-10-21T13:26:12.223Z,6.23
2018-10-21T13:28:39.765Z,8.47
2018-10-21T13:31:07.225Z,7.50
2018-10-21T13:33:34.586Z,6.70
2018-10-21T13:36:02.126Z,9.73
2018-10-21T13:38:29.715Z,7.70
2018-10-21T13:40:57.153Z,7.92
2018-10-21T13:43:24.674Z,6.17
2018-10-21T13:45:52.179Z,8.58
2018-10-21T13:48:19.547Z,9.10
2018-10-21T13:50:47.045Z,6.80
2018-10-21T13:53:14.498Z,6.80
2018-10-21T13:55:41.922Z,6.13
2018-10-21T13:58:09.431Z,6.92
2018-10-21T14:00:36.896Z,6.07
2018-10-21T14:03:04.238Z,6.25
2018-10-21T14:05:31.676Z,7.03
2018-10-21T14:07:59.101Z,6.77
2018-10-21T14:10:26.603Z,6.12
2018-10-21T14:12:54.038Z,6.90
2018-10-21T14:15:21.524Z,5.17
2018-10-21T14:17:48.974Z,6.53
2018-10-21T14:20:16.423Z,6.73
2018-10-21T14:22:43.893Z,9.10
2018-10-21T14:25:11.374Z,9.00
2018-10-21T14:27:38.847Z,7.33
2018-10-21T14:30:06.299Z,6.80
2018-10-21T14:32:33.722Z,5.07
2018-10-21T14:35:01.176Z,6.10
2018-10-21T14:37:28.611Z,7.30
2018-10-21T14:39:56.106Z,9.00
2018-10-21T14:42:23.654Z,5.37
2018-10-21T14:44:51.074Z,8.13
2018-10-21T14:47:18.518Z,6.73
2018-10-21T14:49:45.955Z,4.80
2018-10-21T14:52:13.490Z,6.97
2018-10-21T14:54:40.975Z,4.17
2018-10-21T14:57:08.571Z,8.47
2018-10-21T14:59:36.014Z,8.93
2018-10-21T15:02:03.493Z,8.83
2018-10-21T15:04:30.893Z,5.20
2018-10-21T15:06:58.321Z,4.10
2018-10-21T15:09:25.832Z,6.10
2018-10-21T15:11:53.185Z,6.33
2018-10-21T15:14:20.669Z,5.63
2018-10-21T15:16:48.198Z,6.37
2018-10-21T15:19:15.654Z,6.33
2018-10-21T15:21:43.173Z,4.10
2018-10-21T15:24:10.610Z,5.10
2018-10-21T15:26:38.262Z,6.33
2018-10-21T15:29:05.718Z,5.50
2018-10-21T15:31:33.215Z,7.33
2018-10-21T15:34:00.699Z,3.47
2018-10-21T15:36:28.101Z,5.53
2018-10-21T15:38:55.617Z,5.70
2018-10-21T15:41:23.063Z,5.80
2018-10-21T15:43:50.499Z,6.03
2018-10-21T15:46:18.030Z,6.30
2018-10-21T15:48:45.370Z,5.23
2018-10-21T15:51:12.806Z,8.30
2018-10-21T15:53:40.242Z,7.17
2018-10-21T15:56:07.733Z,4.10
2018-10-21T15:58:35.138Z,7.97
2018-10-21T16:01:02.600Z,3.50
2018-10-21T16:03:30.050Z,5.43
2018-10-21T16:05:57.490Z,3.67
2018-10-21T16:08:24.943Z,7.10
2018-10-21T16:10:52.397Z,9.20
2018-10-21T16:13:19.837Z,6.30
2018-10-21T16:15:47.374Z,9.47
2018-10-21T16:18:14.911Z,6.03
2018-10-21T16:20:42.352Z,7.13
2018-10-21T16:23:09.787Z,6.97
2018-10-21T16:25:37.324Z,6.37
2018-10-21T16:28:04.666Z,6.97
2018-10-21T16:30:32.098Z,7.77
2018-10-21T16:32:59.563Z,9.45
2018-10-21T16:35:27.011Z,4.13
2018-10-21T16:37:54.444Z,6.70
2018-10-21T16:40:21.882Z,4.33
2018-10-21T16:42:49.314Z,6.30
2018-10-21T16:45:16.867Z,7.80
2018-10-21T16:47:44.366Z,6.30
2018-10-21T16:50:12.547Z,7.35
2018-10-21T16:52:40.212Z,6.08
2018-10-21T16:55:07.681Z,7.27
2018-10-21T16:57:35.178Z,7.57
2018-10-21T17:00:02.718Z,9.80
2018-10-21T17:02:30.069Z,12.07
2018-10-21T17:04:57.557Z,5.73
2018-10-21T17:07:24.956Z,5.20
2018-10-21T17:09:52.864Z,6.03
2018-10-21T17:12:19.891Z,4.77
2018-10-21T17:14:47.330Z,9.17
2018-10-21T17:17:14.935Z,5.60
2018-10-21T17:19:42.206Z,8.20
2018-10-21T17:22:09.705Z,6.53
2018-10-21T17:24:37.066Z,5.73
2018-10-21T17:27:04.504Z,6.30
2018-10-21T17:29:31.950Z,9.80
2018-10-21T17:31:59.385Z,7.27
2018-10-21T17:34:26.878Z,6.37
2018-10-21T17:36:54.310Z,7.07
2018-10-21T17:39:21.735Z,6.13
2018-10-21T17:41:49.166Z,6.30
2018-10-21T17:44:16.626Z,6.90
2018-10-21T17:46:44.160Z,11.27
2018-10-21T17:49:11.598Z,9.43
2018-10-21T17:51:39.227Z,12.13
2018-10-21T17:54:06.658Z,11.40
2018-10-21T17:56:37.478Z,12.07
2018-10-21T17:59:04.921Z,8.60
2018-10-21T18:01:32.344Z,10.03
2018-10-21T18:03:59.835Z,10.40
2018-10-21T18:06:27.274Z,10.73
2018-10-21T18:08:54.690Z,11.50
2018-10-21T18:11:22.156Z,11.23
2018-10-21T18:13:49.641Z,10.60
2018-10-21T18:16:17.170Z,12.70
2018-10-21T18:18:44.503Z,13.67
2018-10-21T18:21:11.953Z,12.47
2018-10-21T18:23:39.397Z,13.23
2018-10-21T18:26:06.911Z,19.60
2018-10-21T18:28:34.274Z,13.32
2018-10-21T18:31:01.744Z,16.27
2018-10-21T18:33:29.165Z,13.53
2018-10-21T18:35:56.602Z,18.10
2018-10-21T18:38:24.050Z,17.43
2018-10-21T18:40:51.608Z,16.50
2018-10-21T18:43:18.989Z,18.30
2018-10-21T18:45:46.399Z,16.65
2018-10-21T18:48:13.833Z,19.03
2018-10-21T18:50:41.261Z,14.73
2018-10-21T18:53:08.726Z,14.15
2018-10-21T18:55:36.173Z,14.83
2018-10-21T18:58:03.701Z,11.20
2018-10-21T19:00:31.085Z,12.77
2018-10-21T19:02:58.533Z,16.07
2018-10-21T19:05:25.978Z,13.80
2018-10-21T19:07:53.410Z,15.77
2018-10-21T19:10:20.863Z,15.00
2018-10-21T19:12:59.572Z,18.80
2018-10-21T19:15:15.798Z,13.93
2018-10-21T19:17:43.226Z,13.97
2018-10-21T19:20:12.577Z,11.00
2018-10-21T19:22:40.146Z,16.17
2018-10-21T19:25:07.590Z,12.53
2018-10-21T19:27:35.081Z,14.25
2018-10-21T19:30:02.526Z,15.10
2018-10-21T19:32:29.966Z,15.43
2018-10-21T19:34:57.401Z,19.70
2018-10-21T19:37:24.842Z,15.90
2018-10-21T19:39:52.269Z,13.50
2018-10-21T19:42:19.757Z,18.40
2018-10-21T19:44:47.179Z,10.70
2018-10-21T19:47:14.621Z,13.10
2018-10-21T19:49:42.090Z,11.00
2018-10-21T19:52:09.616Z,13.53
2018-10-21T19:54:36.989Z,13.57
2018-10-21T19:57:04.431Z,13.10
2018-10-21T19:59:31.875Z,15.43
2018-10-21T20:01:59.313Z,13.97
2018-10-21T20:04:26.729Z,12.20
2018-10-21T20:06:54.212Z,15.07
2018-10-21T20:09:21.614Z,10.40
2018-10-21T20:11:49.076Z,13.40
2018-10-21T20:14:16.497Z,13.60
2018-10-21T20:16:43.942Z,12.18
2018-10-21T20:19:11.492Z,13.33
2018-10-21T20:21:38.850Z,14.90
2018-10-21T20:24:06.318Z,12.13
2018-10-21T20:26:33.811Z,12.20
2018-10-21T20:29:01.271Z,13.77
2018-10-21T20:31:28.710Z,12.50
2018-10-21T20:33:56.253Z,12.00
2018-10-21T20:36:23.759Z,13.13
2018-10-21T20:38:51.139Z,12.67
2018-10-21T20:41:18.603Z,12.33
2018-10-21T20:43:46.065Z,15.33
2018-10-21T20:46:13.618Z,15.23
2018-10-21T20:48:41.147Z,12.47
2018-10-21T20:51:08.663Z,12.93
2018-10-21T20:53:36.061Z,11.83
2018-10-21T20:56:03.506Z,12.27
2018-10-21T20:58:31.388Z,12.25
2018-10-21T21:00:58.842Z,13.60
2018-10-21T21:03:26.304Z,13.27
2018-10-21T21:05:53.756Z,13.95
2018-10-21T21:08:21.333Z,11.60
2018-10-21T21:10:48.699Z,13.07
2018-10-21T21:13:16.125Z,10.77
2018-10-21T21:15:43.813Z,14.00
2018-10-21T21:18:11.333Z,12.80
2018-10-21T21:20:38.686Z,12.57
2018-10-21T21:23:06.094Z,11.83
2018-10-21T21:25:33.566Z,12.80
2018-10-21T21:28:01.036Z,15.13
2018-10-21T21:30:28.509Z,11.47
2018-10-21T21:32:55.920Z,10.50
2018-10-21T21:35:23.359Z,12.23
2018-10-21T21:37:50.795Z,11.40
2018-10-21T21:40:18.288Z,10.07
2018-10-21T21:42:45.650Z,13.90
2018-10-21T21:45:13.089Z,15.08
2018-10-21T21:47:40.573Z,13.33
2018-10-21T21:50:08.306Z,12.37
2018-10-21T21:52:35.765Z,10.60
2018-10-21T21:55:03.283Z,11.73
2018-10-21T21:57:30.719Z,12.43
2018-10-21T21:59:58.193Z,12.53
2018-10-21T22:02:25.579Z,9.40
2018-10-21T22:04:53.081Z,10.87
2018-10-21T22:07:20.541Z,11.33
2018-10-21T22:09:47.958Z,12.77
2018-10-21T22:12:15.448Z,10.78
2018-10-21T22:14:42.821Z,13.97
2018-10-21T22:17:10.265Z,15.97
2018-10-21T22:19:37.701Z,10.60
2018-10-21T22:22:05.185Z,10.50
2018-10-21T22:24:32.617Z,11.73
2018-10-21T22:27:00.058Z,12.80
2018-10-21T22:29:27.488Z,11.43
2018-10-21T22:31:54.918Z,11.05
2018-10-21T22:34:22.507Z,12.07
2018-10-21T22:36:50.021Z,13.00
2018-10-21T22:39:17.627Z,13.27
2018-10-21T22:41:45.054Z,11.43
2018-10-21T22:44:12.490Z,11.37
2018-10-21T22:46:39.960Z,11.65
2018-10-21T22:49:07.358Z,12.10
2018-10-21T22:51:34.809Z,13.40
2018-10-21T22:54:02.256Z,12.93
2018-10-21T22:56:29.714Z,11.57
2018-10-21T22:58:57.137Z,15.15
2018-10-21T23:01:24.578Z,10.67
2018-10-21T23:03:52.015Z,11.38
2018-10-21T23:06:19.504Z,12.60
2018-10-21T23:08:46.865Z,10.87
2018-10-21T23:11:14.309Z,12.47
2018-10-21T23:13:41.833Z,11.27
2018-10-21T23:16:09.705Z,11.08
2018-10-21T23:18:37.177Z,12.10
2018-10-21T23:21:04.573Z,10.63
2018-10-21T23:23:32.116Z,11.83
2018-10-21T23:25:59.533Z,15.60
2018-10-21T23:28:27.050Z,10.30
2018-10-21T23:31:00.863Z,11.27
2018-10-21T23:33:28.295Z,14.27
2018-10-21T23:35:55.959Z,13.03
2018-10-21T23:38:23.368Z,10.47
2018-10-21T23:40:50.954Z,14.07
2018-10-21T23:43:18.394Z,12.97
2018-10-21T23:45:45.822Z,10.48
2018-10-21T23:48:13.366Z,13.27
2018-10-21T23:50:40.759Z,11.37
2018-10-21T23:53:08.268Z,11.63
2018-10-21T23:55:35.718Z,10.63
2018-10-21T23:58:03.298Z,12.27
